sensor_id;sensor_type;location;lat;lon;timestamp;P1;durP1;ratioP1;P2;durP2;ratioP2
26080;SDS011;13991;51.174;4.438;2022-12-10T00:01:28;83.23;;;29.17;;
26080;SDS011;13991;51.174;4.438;2022-12-10T00:03:55;95.83;;;31.23;;
26080;SDS011;13991;51.174;4.438;2022-12-10T00:06:21;90.60;;;30.07;;
26080;SDS011;13991;51.174;4.438;2022-12-10T00:08:50;93.80;;;32.13;;
26080;SDS011;13991;51.174;4.438;2022-12-10T00:11:17;91.83;;;29.07;;
26080;SDS011;13991;51.174;4.438;2022-12-10T00:13:44;83.90;;;30.07;;
26080;SDS011;13991;51.174;4.438;2022-12-10T00:16:12;103.93;;;33.73;;
26080;SDS011;13991;51.174;4.438;2022-12-10T00:18:39;80.60;;;30.60;;
26080;SDS011;13991;51.174;4.438;2022-12-10T00:21:06;85.60;;;31.87;;
26080;SDS011;13991;51.174;4.438;2022-12-10T00:23:34;94.87;;;31.43;;
26080;SDS011;13991;51.174;4.438;2022-12-10T00:26:01;95.73;;;32.93;;
26080;SDS011;13991;51.174;4.438;2022-12-10T00:28:28;99.17;;;32.00;;
26080;SDS011;13991;51.174;4.438;2022-12-10T00:30:54;92.27;;;33.03;;
26080;SDS011;13991;51.174;4.438;2022-12-10T00:33:19;96.13;;;33.97;;
26080;SDS011;13991;51.174;4.438;2022-12-10T00:35:45;105.17;;;34.47;;
26080;SDS011;13991;51.174;4.438;2022-12-10T00:38:10;89.53;;;31.77;;
26080;SDS011;13991;51.174;4.438;2022-12-10T00:40:36;100.10;;;34.57;;
26080;SDS011;13991;51.174;4.438;2022-12-10T00:43:02;103.17;;;33.17;;
26080;SDS011;13991;51.174;4.438;2022-12-10T00:45:28;88.37;;;33.03;;
26080;SDS011;13991;51.174;4.438;2022-12-10T00:47:53;113.37;;;34.57;;
26080;SDS011;13991;51.174;4.438;2022-12-10T00:50:19;104.93;;;34.17;;
26080;SDS011;13991;51.174;4.438;2022-12-10T00:52:45;109.70;;;35.87;;
26080;SDS011;13991;51.174;4.438;2022-12-10T00:55:10;108.07;;;34.80;;
26080;SDS011;13991;51.174;4.438;2022-12-10T00:57:36;90.93;;;32.70;;
26080;SDS011;13991;51.174;4.438;2022-12-10T01:00:02;104.83;;;34.50;;
26080;SDS011;13991;51.174;4.438;2022-12-10T01:02:28;100.70;;;36.30;;
26080;SDS011;13991;51.174;4.438;2022-12-10T01:04:54;103.97;;;36.83;;
26080;SDS011;13991;51.174;4.438;2022-12-10T01:07:19;101.27;;;35.83;;
26080;SDS011;13991;51.174;4.438;2022-12-10T01:09:45;107.40;;;37.60;;
26080;SDS011;13991;51.174;4.438;2022-12-10T01:12:11;106.90;;;37.10;;
26080;SDS011;13991;51.174;4.438;2022-12-10T01:14:36;93.40;;;32.73;;
26080;SDS011;13991;51.174;4.438;2022-12-10T01:17:03;94.07;;;34.03;;
26080;SDS011;13991;51.174;4.438;2022-12-10T01:19:30;104.03;;;36.63;;
26080;SDS011;13991;51.174;4.438;2022-12-10T01:21:57;110.93;;;33.40;;
26080;SDS011;13991;51.174;4.438;2022-12-10T01:24:24;103.57;;;36.23;;
26080;SDS011;13991;51.174;4.438;2022-12-10T01:26:52;114.50;;;35.97;;
26080;SDS011;13991;51.174;4.438;2022-12-10T01:29:19;116.53;;;34.33;;
26080;SDS011;13991;51.174;4.438;2022-12-10T01:31:45;106.10;;;34.90;;
26080;SDS011;13991;51.174;4.438;2022-12-10T01:34:14;98.97;;;33.43;;
26080;SDS011;13991;51.174;4.438;2022-12-10T01:36:42;99.70;;;33.30;;
26080;SDS011;13991;51.174;4.438;2022-12-10T01:39:11;105.77;;;33.20;;
26080;SDS011;13991;51.174;4.438;2022-12-10T01:41:39;105.97;;;33.70;;
26080;SDS011;13991;51.174;4.438;2022-12-10T01:46:33;110.40;;;33.23;;
26080;SDS011;13991;51.174;4.438;2022-12-10T01:49:02;108.03;;;34.37;;
26080;SDS011;13991;51.174;4.438;2022-12-10T01:51:34;110.00;;;34.37;;
26080;SDS011;13991;51.174;4.438;2022-12-10T01:54:02;107.77;;;34.00;;
26080;SDS011;13991;51.174;4.438;2022-12-10T01:56:30;105.70;;;33.50;;
26080;SDS011;13991;51.174;4.438;2022-12-10T01:58:59;116.90;;;36.37;;
26080;SDS011;13991;51.174;4.438;2022-12-10T02:01:29;101.60;;;33.07;;
26080;SDS011;13991;51.174;4.438;2022-12-10T02:04:09;110.10;;;35.07;;
26080;SDS011;13991;51.174;4.438;2022-12-10T02:10:08;109.50;;;33.83;;
26080;SDS011;13991;51.174;4.438;2022-12-10T02:13:05;109.40;;;32.73;;
26080;SDS011;13991;51.174;4.438;2022-12-10T02:21:00;108.83;;;31.03;;
26080;SDS011;13991;51.174;4.438;2022-12-10T02:23:41;109.00;;;34.00;;
26080;SDS011;13991;51.174;4.438;2022-12-10T02:29:13;102.90;;;32.60;;
26080;SDS011;13991;51.174;4.438;2022-12-10T02:31:46;111.60;;;34.23;;
26080;SDS011;13991;51.174;4.438;2022-12-10T02:34:17;116.67;;;33.80;;
26080;SDS011;13991;51.174;4.438;2022-12-10T02:36:47;128.80;;;36.17;;
26080;SDS011;13991;51.174;4.438;2022-12-10T02:39:18;117.87;;;34.67;;
26080;SDS011;13991;51.174;4.438;2022-12-10T02:41:53;122.27;;;34.93;;
26080;SDS011;13991;51.174;4.438;2022-12-10T02:44:20;153.57;;;35.40;;
26080;SDS011;13991;51.174;4.438;2022-12-10T02:46:49;118.43;;;35.33;;
26080;SDS011;13991;51.174;4.438;2022-12-10T02:49:18;122.30;;;39.00;;
26080;SDS011;13991;51.174;4.438;2022-12-10T02:51:44;162.43;;;40.23;;
26080;SDS011;13991;51.174;4.438;2022-12-10T02:57:01;137.87;;;37.67;;
26080;SDS011;13991;51.174;4.438;2022-12-10T03:02:51;116.30;;;34.83;;
26080;SDS011;13991;51.174;4.438;2022-12-10T03:05:40;123.97;;;35.63;;
26080;SDS011;13991;51.174;4.438;2022-12-10T03:08:10;128.63;;;35.93;;
26080;SDS011;13991;51.174;4.438;2022-12-10T03:11:01;124.40;;;35.93;;
26080;SDS011;13991;51.174;4.438;2022-12-10T03:13:36;146.63;;;36.97;;
26080;SDS011;13991;51.174;4.438;2022-12-10T03:16:12;123.33;;;35.83;;
26080;SDS011;13991;51.174;4.438;2022-12-10T03:18:39;125.00;;;37.07;;
26080;SDS011;13991;51.174;4.438;2022-12-10T03:21:06;144.13;;;36.80;;
26080;SDS011;13991;51.174;4.438;2022-12-10T03:23:35;136.80;;;34.83;;
26080;SDS011;13991;51.174;4.438;2022-12-10T03:26:04;125.27;;;34.77;;
26080;SDS011;13991;51.174;4.438;2022-12-10T03:28:36;174.17;;;34.13;;
26080;SDS011;13991;51.174;4.438;2022-12-10T03:31:17;129.30;;;36.60;;
26080;SDS011;13991;51.174;4.438;2022-12-10T03:33:45;137.90;;;35.03;;
26080;SDS011;13991;51.174;4.438;2022-12-10T03:36:12;125.27;;;33.40;;
26080;SDS011;13991;51.174;4.438;2022-12-10T03:38:39;125.10;;;35.97;;
26080;SDS011;13991;51.174;4.438;2022-12-10T03:41:06;130.13;;;38.27;;
26080;SDS011;13991;51.174;4.438;2022-12-10T03:43:31;128.00;;;38.47;;
26080;SDS011;13991;51.174;4.438;2022-12-10T03:45:57;122.70;;;36.90;;
26080;SDS011;13991;51.174;4.438;2022-12-10T03:48:23;136.70;;;34.50;;
26080;SDS011;13991;51.174;4.438;2022-12-10T03:50:49;134.27;;;35.60;;
26080;SDS011;13991;51.174;4.438;2022-12-10T03:53:15;132.37;;;36.50;;
26080;SDS011;13991;51.174;4.438;2022-12-10T03:55:40;122.33;;;34.10;;
26080;SDS011;13991;51.174;4.438;2022-12-10T03:58:06;125.33;;;36.50;;
26080;SDS011;13991;51.174;4.438;2022-12-10T04:00:32;124.73;;;35.33;;
26080;SDS011;13991;51.174;4.438;2022-12-10T04:02:57;141.77;;;36.73;;
26080;SDS011;13991;51.174;4.438;2022-12-10T04:05:23;116.47;;;34.20;;
26080;SDS011;13991;51.174;4.438;2022-12-10T04:07:49;116.87;;;34.57;;
26080;SDS011;13991;51.174;4.438;2022-12-10T04:10:14;120.43;;;32.53;;
26080;SDS011;13991;51.174;4.438;2022-12-10T04:12:40;121.40;;;33.40;;
26080;SDS011;13991;51.174;4.438;2022-12-10T04:15:06;124.70;;;35.13;;
26080;SDS011;13991;51.174;4.438;2022-12-10T04:17:51;130.87;;;35.53;;
26080;SDS011;13991;51.174;4.438;2022-12-10T04:20:17;177.80;;;35.10;;
26080;SDS011;13991;51.174;4.438;2022-12-10T04:23:02;123.43;;;34.37;;
26080;SDS011;13991;51.174;4.438;2022-12-10T04:25:46;130.60;;;34.80;;
26080;SDS011;13991;51.174;4.438;2022-12-10T04:28:30;124.93;;;34.87;;
26080;SDS011;13991;51.174;4.438;2022-12-10T04:30:56;124.83;;;35.83;;
26080;SDS011;13991;51.174;4.438;2022-12-10T04:33:21;145.90;;;36.27;;
26080;SDS011;13991;51.174;4.438;2022-12-10T04:35:47;117.67;;;32.93;;
26080;SDS011;13991;51.174;4.438;2022-12-10T04:38:13;169.70;;;32.97;;
26080;SDS011;13991;51.174;4.438;2022-12-10T04:40:39;143.13;;;34.37;;
26080;SDS011;13991;51.174;4.438;2022-12-10T04:43:04;108.63;;;32.27;;
26080;SDS011;13991;51.174;4.438;2022-12-10T04:45:30;158.03;;;33.47;;
26080;SDS011;13991;51.174;4.438;2022-12-10T04:47:58;115.17;;;33.63;;
26080;SDS011;13991;51.174;4.438;2022-12-10T04:50:23;143.43;;;34.73;;
26080;SDS011;13991;51.174;4.438;2022-12-10T04:52:49;126.37;;;34.30;;
26080;SDS011;13991;51.174;4.438;2022-12-10T04:55:15;145.70;;;34.30;;
26080;SDS011;13991;51.174;4.438;2022-12-10T04:57:42;136.60;;;32.97;;
26080;SDS011;13991;51.174;4.438;2022-12-10T05:00:07;136.93;;;35.50;;
26080;SDS011;13991;51.174;4.438;2022-12-10T05:02:34;107.73;;;31.77;;
26080;SDS011;13991;51.174;4.438;2022-12-10T05:05:00;136.03;;;32.70;;
26080;SDS011;13991;51.174;4.438;2022-12-10T05:07:25;126.20;;;31.10;;
26080;SDS011;13991;51.174;4.438;2022-12-10T05:09:51;143.77;;;34.63;;
26080;SDS011;13991;51.174;4.438;2022-12-10T05:12:17;165.83;;;35.70;;
26080;SDS011;13991;51.174;4.438;2022-12-10T05:14:42;164.10;;;35.40;;
26080;SDS011;13991;51.174;4.438;2022-12-10T05:17:08;146.27;;;35.07;;
26080;SDS011;13991;51.174;4.438;2022-12-10T05:19:34;121.83;;;35.03;;
26080;SDS011;13991;51.174;4.438;2022-12-10T05:21:59;142.43;;;35.87;;
26080;SDS011;13991;51.174;4.438;2022-12-10T05:24:43;188.17;;;34.47;;
26080;SDS011;13991;51.174;4.438;2022-12-10T05:27:09;135.00;;;33.87;;
26080;SDS011;13991;51.174;4.438;2022-12-10T05:29:35;147.13;;;35.57;;
26080;SDS011;13991;51.174;4.438;2022-12-10T05:32:00;136.27;;;34.30;;
26080;SDS011;13991;51.174;4.438;2022-12-10T05:34:27;149.33;;;37.33;;
26080;SDS011;13991;51.174;4.438;2022-12-10T05:36:53;139.00;;;35.60;;
26080;SDS011;13991;51.174;4.438;2022-12-10T05:39:18;131.07;;;33.37;;
26080;SDS011;13991;51.174;4.438;2022-12-10T05:41:44;156.70;;;33.00;;
26080;SDS011;13991;51.174;4.438;2022-12-10T05:44:10;118.37;;;32.33;;
26080;SDS011;13991;51.174;4.438;2022-12-10T05:46:36;122.87;;;33.60;;
26080;SDS011;13991;51.174;4.438;2022-12-10T05:49:03;114.57;;;32.37;;
26080;SDS011;13991;51.174;4.438;2022-12-10T05:51:30;170.77;;;36.23;;
26080;SDS011;13991;51.174;4.438;2022-12-10T05:53:57;144.20;;;37.53;;
26080;SDS011;13991;51.174;4.438;2022-12-10T05:56:25;155.10;;;36.90;;
26080;SDS011;13991;51.174;4.438;2022-12-10T05:58:52;128.67;;;36.43;;
26080;SDS011;13991;51.174;4.438;2022-12-10T06:01:21;127.07;;;33.27;;
26080;SDS011;13991;51.174;4.438;2022-12-10T06:03:49;141.30;;;36.47;;
26080;SDS011;13991;51.174;4.438;2022-12-10T06:06:21;105.33;;;32.80;;
26080;SDS011;13991;51.174;4.438;2022-12-10T06:08:48;114.67;;;31.87;;
26080;SDS011;13991;51.174;4.438;2022-12-10T06:11:14;117.20;;;31.70;;
26080;SDS011;13991;51.174;4.438;2022-12-10T06:13:40;101.67;;;31.90;;
26080;SDS011;13991;51.174;4.438;2022-12-10T06:16:10;181.77;;;32.10;;
26080;SDS011;13991;51.174;4.438;2022-12-10T06:18:37;92.80;;;27.87;;
26080;SDS011;13991;51.174;4.438;2022-12-10T06:21:07;100.57;;;29.07;;
26080;SDS011;13991;51.174;4.438;2022-12-10T06:23:38;101.73;;;30.13;;
26080;SDS011;13991;51.174;4.438;2022-12-10T06:26:06;96.73;;;28.90;;
26080;SDS011;13991;51.174;4.438;2022-12-10T06:28:32;100.90;;;29.43;;
26080;SDS011;13991;51.174;4.438;2022-12-10T06:30:58;103.00;;;30.33;;
26080;SDS011;13991;51.174;4.438;2022-12-10T06:33:25;93.57;;;28.20;;
26080;SDS011;13991;51.174;4.438;2022-12-10T06:35:51;97.70;;;29.50;;
26080;SDS011;13991;51.174;4.438;2022-12-10T06:38:16;95.87;;;28.70;;
26080;SDS011;13991;51.174;4.438;2022-12-10T06:40:42;137.33;;;43.80;;
26080;SDS011;13991;51.174;4.438;2022-12-10T06:43:09;115.43;;;33.40;;
26080;SDS011;13991;51.174;4.438;2022-12-10T06:45:39;119.27;;;31.20;;
26080;SDS011;13991;51.174;4.438;2022-12-10T06:48:05;115.07;;;30.93;;
26080;SDS011;13991;51.174;4.438;2022-12-10T06:50:31;137.63;;;33.93;;
26080;SDS011;13991;51.174;4.438;2022-12-10T06:52:56;112.00;;;32.47;;
26080;SDS011;13991;51.174;4.438;2022-12-10T06:55:22;107.67;;;30.77;;
26080;SDS011;13991;51.174;4.438;2022-12-10T06:57:51;130.53;;;34.77;;
26080;SDS011;13991;51.174;4.438;2022-12-10T07:00:18;114.67;;;32.03;;
26080;SDS011;13991;51.174;4.438;2022-12-10T07:02:44;127.13;;;42.47;;
26080;SDS011;13991;51.174;4.438;2022-12-10T07:05:10;102.37;;;31.73;;
26080;SDS011;13991;51.174;4.438;2022-12-10T07:07:35;82.80;;;27.77;;
26080;SDS011;13991;51.174;4.438;2022-12-10T07:10:01;95.77;;;30.40;;
26080;SDS011;13991;51.174;4.438;2022-12-10T07:12:28;105.23;;;31.13;;
26080;SDS011;13991;51.174;4.438;2022-12-10T07:14:53;119.93;;;30.00;;
26080;SDS011;13991;51.174;4.438;2022-12-10T07:17:19;110.73;;;29.60;;
26080;SDS011;13991;51.174;4.438;2022-12-10T07:19:45;102.47;;;32.27;;
26080;SDS011;13991;51.174;4.438;2022-12-10T07:22:10;101.57;;;29.70;;
26080;SDS011;13991;51.174;4.438;2022-12-10T07:24:36;109.33;;;31.17;;
26080;SDS011;13991;51.174;4.438;2022-12-10T07:27:04;105.03;;;31.80;;
26080;SDS011;13991;51.174;4.438;2022-12-10T07:29:30;100.33;;;30.93;;
26080;SDS011;13991;51.174;4.438;2022-12-10T07:31:56;106.47;;;29.97;;
26080;SDS011;13991;51.174;4.438;2022-12-10T07:34:21;137.90;;;30.07;;
26080;SDS011;13991;51.174;4.438;2022-12-10T07:36:47;99.00;;;27.33;;
26080;SDS011;13991;51.174;4.438;2022-12-10T07:39:13;137.23;;;31.23;;
26080;SDS011;13991;51.174;4.438;2022-12-10T07:41:43;100.07;;;29.27;;
26080;SDS011;13991;51.174;4.438;2022-12-10T07:44:16;104.87;;;28.77;;
26080;SDS011;13991;51.174;4.438;2022-12-10T07:46:43;112.33;;;30.73;;
26080;SDS011;13991;51.174;4.438;2022-12-10T07:49:09;125.57;;;32.03;;
26080;SDS011;13991;51.174;4.438;2022-12-10T07:51:35;146.07;;;46.10;;
26080;SDS011;13991;51.174;4.438;2022-12-10T07:54:00;119.47;;;34.63;;
26080;SDS011;13991;51.174;4.438;2022-12-10T07:56:27;125.87;;;35.30;;
26080;SDS011;13991;51.174;4.438;2022-12-10T07:58:53;114.97;;;33.33;;
26080;SDS011;13991;51.174;4.438;2022-12-10T08:01:20;100.97;;;31.70;;
26080;SDS011;13991;51.174;4.438;2022-12-10T08:03:48;110.93;;;31.93;;
26080;SDS011;13991;51.174;4.438;2022-12-10T08:06:15;109.77;;;30.73;;
26080;SDS011;13991;51.174;4.438;2022-12-10T08:08:42;118.50;;;31.47;;
26080;SDS011;13991;51.174;4.438;2022-12-10T08:11:09;99.20;;;29.63;;
26080;SDS011;13991;51.174;4.438;2022-12-10T08:13:35;113.87;;;31.53;;
26080;SDS011;13991;51.174;4.438;2022-12-10T08:16:02;112.73;;;29.40;;
26080;SDS011;13991;51.174;4.438;2022-12-10T08:18:29;111.80;;;32.43;;
26080;SDS011;13991;51.174;4.438;2022-12-10T08:20:56;114.87;;;32.43;;
26080;SDS011;13991;51.174;4.438;2022-12-10T08:23:21;109.80;;;31.70;;
26080;SDS011;13991;51.174;4.438;2022-12-10T08:25:47;128.37;;;32.17;;
26080;SDS011;13991;51.174;4.438;2022-12-10T08:28:12;107.73;;;30.87;;
26080;SDS011;13991;51.174;4.438;2022-12-10T08:30:38;115.47;;;31.53;;
26080;SDS011;13991;51.174;4.438;2022-12-10T08:33:04;117.17;;;31.37;;
26080;SDS011;13991;51.174;4.438;2022-12-10T08:35:29;121.57;;;32.03;;
26080;SDS011;13991;51.174;4.438;2022-12-10T08:37:55;123.30;;;33.57;;
26080;SDS011;13991;51.174;4.438;2022-12-10T08:40:21;122.77;;;32.50;;
26080;SDS011;13991;51.174;4.438;2022-12-10T08:42:46;111.70;;;33.03;;
26080;SDS011;13991;51.174;4.438;2022-12-10T08:45:13;108.43;;;31.30;;
26080;SDS011;13991;51.174;4.438;2022-12-10T08:47:38;118.53;;;32.33;;
26080;SDS011;13991;51.174;4.438;2022-12-10T08:50:04;124.07;;;32.23;;
26080;SDS011;13991;51.174;4.438;2022-12-10T08:52:30;129.20;;;40.28;;
26080;SDS011;13991;51.174;4.438;2022-12-10T08:54:55;115.60;;;33.13;;
26080;SDS011;13991;51.174;4.438;2022-12-10T08:57:21;114.13;;;31.43;;
26080;SDS011;13991;51.174;4.438;2022-12-10T08:59:47;112.70;;;34.23;;
26080;SDS011;13991;51.174;4.438;2022-12-10T09:02:12;112.17;;;33.17;;
26080;SDS011;13991;51.174;4.438;2022-12-10T09:04:38;104.27;;;31.33;;
26080;SDS011;13991;51.174;4.438;2022-12-10T09:07:04;112.50;;;28.80;;
26080;SDS011;13991;51.174;4.438;2022-12-10T09:09:30;107.87;;;31.93;;
26080;SDS011;13991;51.174;4.438;2022-12-10T09:11:56;127.40;;;32.63;;
26080;SDS011;13991;51.174;4.438;2022-12-10T09:14:22;124.87;;;32.80;;
26080;SDS011;13991;51.174;4.438;2022-12-10T09:16:48;106.40;;;31.37;;
26080;SDS011;13991;51.174;4.438;2022-12-10T09:19:14;118.63;;;34.47;;
26080;SDS011;13991;51.174;4.438;2022-12-10T09:21:40;110.63;;;32.03;;
26080;SDS011;13991;51.174;4.438;2022-12-10T09:24:06;113.67;;;32.20;;
26080;SDS011;13991;51.174;4.438;2022-12-10T09:26:32;122.83;;;32.83;;
26080;SDS011;13991;51.174;4.438;2022-12-10T09:28:58;120.70;;;31.97;;
26080;SDS011;13991;51.174;4.438;2022-12-10T09:31:24;112.13;;;32.77;;
26080;SDS011;13991;51.174;4.438;2022-12-10T09:33:53;123.23;;;32.83;;
26080;SDS011;13991;51.174;4.438;2022-12-10T09:36:19;130.17;;;32.70;;
26080;SDS011;13991;51.174;4.438;2022-12-10T09:38:46;112.00;;;30.90;;
26080;SDS011;13991;51.174;4.438;2022-12-10T09:41:17;112.37;;;31.23;;
26080;SDS011;13991;51.174;4.438;2022-12-10T09:44:27;112.73;;;30.57;;
26080;SDS011;13991;51.174;4.438;2022-12-10T09:46:58;110.07;;;31.90;;
26080;SDS011;13991;51.174;4.438;2022-12-10T09:52:14;106.93;;;31.30;;
26080;SDS011;13991;51.174;4.438;2022-12-10T09:54:44;110.27;;;31.27;;
26080;SDS011;13991;51.174;4.438;2022-12-10T09:57:33;109.80;;;31.43;;
26080;SDS011;13991;51.174;4.438;2022-12-10T10:00:15;113.67;;;28.57;;
26080;SDS011;13991;51.174;4.438;2022-12-10T10:03:03;107.87;;;28.47;;
26080;SDS011;13991;51.174;4.438;2022-12-10T10:05:32;91.33;;;26.83;;
26080;SDS011;13991;51.174;4.438;2022-12-10T10:08:02;103.60;;;29.20;;
26080;SDS011;13991;51.174;4.438;2022-12-10T10:10:31;90.87;;;25.97;;
26080;SDS011;13991;51.174;4.438;2022-12-10T10:13:15;90.50;;;27.13;;
26080;SDS011;13991;51.174;4.438;2022-12-10T10:16:18;78.63;;;24.17;;
26080;SDS011;13991;51.174;4.438;2022-12-10T10:18:56;83.83;;;24.73;;
26080;SDS011;13991;51.174;4.438;2022-12-10T10:21:28;86.37;;;25.57;;
26080;SDS011;13991;51.174;4.438;2022-12-10T10:24:04;93.60;;;27.37;;
26080;SDS011;13991;51.174;4.438;2022-12-10T10:26:31;105.77;;;27.67;;
26080;SDS011;13991;51.174;4.438;2022-12-10T10:29:02;93.27;;;27.67;;
26080;SDS011;13991;51.174;4.438;2022-12-10T10:31:31;88.00;;;28.57;;
26080;SDS011;13991;51.174;4.438;2022-12-10T10:34:03;101.20;;;29.97;;
26080;SDS011;13991;51.174;4.438;2022-12-10T10:36:37;94.43;;;28.87;;
26080;SDS011;13991;51.174;4.438;2022-12-10T10:39:08;90.67;;;28.10;;
26080;SDS011;13991;51.174;4.438;2022-12-10T10:41:40;95.53;;;27.30;;
26080;SDS011;13991;51.174;4.438;2022-12-10T10:44:15;99.53;;;29.13;;
26080;SDS011;13991;51.174;4.438;2022-12-10T10:46:43;97.73;;;28.70;;
26080;SDS011;13991;51.174;4.438;2022-12-10T10:49:17;90.97;;;26.53;;
26080;SDS011;13991;51.174;4.438;2022-12-10T10:51:44;96.43;;;28.20;;
26080;SDS011;13991;51.174;4.438;2022-12-10T10:54:10;102.40;;;28.90;;
26080;SDS011;13991;51.174;4.438;2022-12-10T10:56:40;105.53;;;29.20;;
26080;SDS011;13991;51.174;4.438;2022-12-10T11:01:45;101.17;;;27.83;;
26080;SDS011;13991;51.174;4.438;2022-12-10T11:04:15;96.70;;;28.47;;
26080;SDS011;13991;51.174;4.438;2022-12-10T11:06:43;92.77;;;25.93;;
26080;SDS011;13991;51.174;4.438;2022-12-10T11:09:15;108.50;;;27.37;;
26080;SDS011;13991;51.174;4.438;2022-12-10T11:11:57;95.43;;;26.27;;
26080;SDS011;13991;51.174;4.438;2022-12-10T11:14:42;83.90;;;25.27;;
26080;SDS011;13991;51.174;4.438;2022-12-10T11:19:53;82.60;;;24.93;;
26080;SDS011;13991;51.174;4.438;2022-12-10T11:22:23;100.63;;;28.43;;
26080;SDS011;13991;51.174;4.438;2022-12-10T11:24:51;99.90;;;29.33;;
26080;SDS011;13991;51.174;4.438;2022-12-10T11:30:26;104.33;;;28.90;;
26080;SDS011;13991;51.174;4.438;2022-12-10T11:38:28;96.00;;;27.27;;
26080;SDS011;13991;51.174;4.438;2022-12-10T11:41:14;97.57;;;27.63;;
26080;SDS011;13991;51.174;4.438;2022-12-10T11:46:36;100.93;;;26.50;;
26080;SDS011;13991;51.174;4.438;2022-12-10T11:51:51;85.87;;;25.43;;
26080;SDS011;13991;51.174;4.438;2022-12-10T12:14:54;88.80;;;24.50;;
26080;SDS011;13991;51.174;4.438;2022-12-10T12:17:33;87.17;;;24.77;;
26080;SDS011;13991;51.174;4.438;2022-12-10T12:20:14;91.53;;;26.40;;
26080;SDS011;13991;51.174;4.438;2022-12-10T12:22:43;96.53;;;25.83;;
26080;SDS011;13991;51.174;4.438;2022-12-10T12:25:20;87.10;;;25.77;;
26080;SDS011;13991;51.174;4.438;2022-12-10T12:27:53;98.33;;;27.23;;
26080;SDS011;13991;51.174;4.438;2022-12-10T12:30:24;91.67;;;27.13;;
26080;SDS011;13991;51.174;4.438;2022-12-10T12:33:04;105.00;;;26.63;;
26080;SDS011;13991;51.174;4.438;2022-12-10T12:40:56;94.23;;;25.27;;
26080;SDS011;13991;51.174;4.438;2022-12-10T12:43:24;92.77;;;25.93;;
26080;SDS011;13991;51.174;4.438;2022-12-10T12:46:08;86.83;;;25.47;;
26080;SDS011;13991;51.174;4.438;2022-12-10T12:48:48;87.63;;;25.63;;
26080;SDS011;13991;51.174;4.438;2022-12-10T12:51:37;85.03;;;25.87;;
26080;SDS011;13991;51.174;4.438;2022-12-10T12:54:07;96.10;;;24.10;;
26080;SDS011;13991;51.174;4.438;2022-12-10T13:02:22;85.90;;;25.07;;
26080;SDS011;13991;51.174;4.438;2022-12-10T13:04:50;85.77;;;25.70;;
26080;SDS011;13991;51.174;4.438;2022-12-10T13:07:26;96.03;;;25.70;;
26080;SDS011;13991;51.174;4.438;2022-12-10T13:12:32;84.57;;;24.53;;
26080;SDS011;13991;51.174;4.438;2022-12-10T13:15:40;86.13;;;25.10;;
26080;SDS011;13991;51.174;4.438;2022-12-10T13:20:40;73.60;;;22.07;;
26080;SDS011;13991;51.174;4.438;2022-12-10T13:36:33;83.20;;;24.37;;
26080;SDS011;13991;51.174;4.438;2022-12-10T13:41:33;74.60;;;23.37;;
26080;SDS011;13991;51.174;4.438;2022-12-10T13:44:36;74.67;;;22.73;;
26080;SDS011;13991;51.174;4.438;2022-12-10T13:52:20;81.37;;;22.37;;
26080;SDS011;13991;51.174;4.438;2022-12-10T13:58:15;81.33;;;21.30;;
26080;SDS011;13991;51.174;4.438;2022-12-10T14:01:12;78.20;;;21.53;;
26080;SDS011;13991;51.174;4.438;2022-12-10T14:06:50;82.13;;;24.03;;
26080;SDS011;13991;51.174;4.438;2022-12-10T14:11:47;80.83;;;22.67;;
26080;SDS011;13991;51.174;4.438;2022-12-10T14:14:22;80.73;;;23.67;;
26080;SDS011;13991;51.174;4.438;2022-12-10T14:16:52;91.53;;;24.93;;
26080;SDS011;13991;51.174;4.438;2022-12-10T14:19:18;91.23;;;23.97;;
26080;SDS011;13991;51.174;4.438;2022-12-10T14:21:46;81.23;;;22.53;;
26080;SDS011;13991;51.174;4.438;2022-12-10T14:27:03;96.23;;;26.47;;
26080;SDS011;13991;51.174;4.438;2022-12-10T14:29:43;89.27;;;22.80;;
26080;SDS011;13991;51.174;4.438;2022-12-10T14:32:14;104.50;;;25.80;;
26080;SDS011;13991;51.174;4.438;2022-12-10T14:34:41;80.23;;;22.43;;
26080;SDS011;13991;51.174;4.438;2022-12-10T14:37:11;75.97;;;21.60;;
26080;SDS011;13991;51.174;4.438;2022-12-10T14:39:39;86.50;;;24.07;;
26080;SDS011;13991;51.174;4.438;2022-12-10T14:42:05;85.90;;;23.73;;
26080;SDS011;13991;51.174;4.438;2022-12-10T14:44:34;83.50;;;24.33;;
26080;SDS011;13991;51.174;4.438;2022-12-10T14:47:06;101.17;;;24.70;;
26080;SDS011;13991;51.174;4.438;2022-12-10T14:49:41;83.63;;;24.37;;
26080;SDS011;13991;51.174;4.438;2022-12-10T14:52:13;83.97;;;23.70;;
26080;SDS011;13991;51.174;4.438;2022-12-10T14:54:40;83.63;;;23.47;;
26080;SDS011;13991;51.174;4.438;2022-12-10T14:57:18;87.33;;;23.83;;
26080;SDS011;13991;51.174;4.438;2022-12-10T15:00:00;79.83;;;22.93;;
26080;SDS011;13991;51.174;4.438;2022-12-10T15:02:38;78.30;;;21.57;;
26080;SDS011;13991;51.174;4.438;2022-12-10T15:05:16;80.47;;;23.53;;
26080;SDS011;13991;51.174;4.438;2022-12-10T15:07:53;76.57;;;23.73;;
26080;SDS011;13991;51.174;4.438;2022-12-10T15:10:37;83.37;;;25.90;;
26080;SDS011;13991;51.174;4.438;2022-12-10T15:13:17;95.97;;;22.90;;
26080;SDS011;13991;51.174;4.438;2022-12-10T15:15:47;79.10;;;21.90;;
26080;SDS011;13991;51.174;4.438;2022-12-10T15:18:15;88.70;;;23.67;;
26080;SDS011;13991;51.174;4.438;2022-12-10T15:30:54;82.47;;;24.47;;
26080;SDS011;13991;51.174;4.438;2022-12-10T15:33:36;87.27;;;23.33;;
26080;SDS011;13991;51.174;4.438;2022-12-10T15:36:11;97.20;;;24.67;;
26080;SDS011;13991;51.174;4.438;2022-12-10T15:38:45;85.57;;;22.33;;
26080;SDS011;13991;51.174;4.438;2022-12-10T15:41:22;98.73;;;24.13;;
26080;SDS011;13991;51.174;4.438;2022-12-10T15:44:03;93.30;;;23.30;;
26080;SDS011;13991;51.174;4.438;2022-12-10T15:46:30;93.87;;;24.13;;
26080;SDS011;13991;51.174;4.438;2022-12-10T15:48:57;97.07;;;25.83;;
26080;SDS011;13991;51.174;4.438;2022-12-10T15:51:23;113.40;;;26.60;;
26080;SDS011;13991;51.174;4.438;2022-12-10T15:53:50;94.00;;;25.63;;
26080;SDS011;13991;51.174;4.438;2022-12-10T15:56:16;93.37;;;25.37;;
26080;SDS011;13991;51.174;4.438;2022-12-10T15:58:42;107.90;;;27.47;;
26080;SDS011;13991;51.174;4.438;2022-12-10T16:01:08;103.43;;;26.80;;
26080;SDS011;13991;51.174;4.438;2022-12-10T16:03:38;95.57;;;25.27;;
26080;SDS011;13991;51.174;4.438;2022-12-10T16:06:06;106.23;;;27.43;;
26080;SDS011;13991;51.174;4.438;2022-12-10T16:08:31;102.27;;;24.73;;
26080;SDS011;13991;51.174;4.438;2022-12-10T16:11:00;90.10;;;24.97;;
26080;SDS011;13991;51.174;4.438;2022-12-10T16:13:34;88.43;;;25.00;;
26080;SDS011;13991;51.174;4.438;2022-12-10T16:16:06;112.77;;;26.67;;
26080;SDS011;13991;51.174;4.438;2022-12-10T16:18:34;105.30;;;26.17;;
26080;SDS011;13991;51.174;4.438;2022-12-10T16:21:02;108.77;;;27.97;;
26080;SDS011;13991;51.174;4.438;2022-12-10T16:23:28;118.93;;;26.20;;
26080;SDS011;13991;51.174;4.438;2022-12-10T16:25:54;101.07;;;25.97;;
26080;SDS011;13991;51.174;4.438;2022-12-10T16:28:21;109.57;;;27.40;;
26080;SDS011;13991;51.174;4.438;2022-12-10T16:30:48;104.90;;;27.47;;